Time;durP1;ratioP1;P1;durP2;ratioP2;P2;SDS_P1;SDS_P2;PMS_P1;PMS_P2;Temp;Humidity;BMP_temperature;BMP_pressure;BME280_temperature;BME280_humidity;BME280_pressure;Samples;Min_cycle;Max_cycle;Signal;HPM_P1;HPM_P2
2023/10/11 00:01:09;;;;;;;11.75;7.05;;;;;;;9.23;100.00;95672.75;4978140;28;20047;-75
2023/10/11 00:03:35;;;;;;;8.23;6.78;;;;;;;9.21;100.00;95666.94;4979580;28;20030;-76
2023/10/11 00:06:04;;;;;;;6.93;5.85;;;;;;;9.28;100.00;95665.41;4979490;28;20019;-76
2023/10/11 00:08:39;;;;;;;7.00;6.35;;;;;;;9.16;100.00;95656.19;4979916;28;20422;-75
2023/10/11 00:11:07;;;;;;;10.57;6.30;;;;;;;9.23;100.00;95657.25;4978297;28;20419;-76
2023/10/11 00:13:33;;;;;;;6.28;5.68;;;;;;;9.33;100.00;95642.50;4979193;28;20061;-75
2023/10/11 00:16:07;;;;;;;7.13;6.43;;;;;;;9.29;100.00;95647.13;4979132;28;20038;-75
2023/10/11 00:18:34;;;;;;;7.03;6.32;;;;;;;9.10;100.00;95649.03;4977916;28;20068;-75
2023/10/11 00:21:02;;;;;;;8.88;7.15;;;;;;;9.06;100.00;95655.41;4979537;28;20030;-76
2023/10/11 00:23:31;;;;;;;9.95;7.15;;;;;;;9.11;100.00;95663.56;4977805;28;20023;-75
2023/10/11 00:26:00;;;;;;;9.82;8.38;;;;;;;9.07;100.00;95677.72;4979387;28;20066;-75
2023/10/11 00:28:26;;;;;;;;;;;;;;;8.83;100.00;95686.78;4946109;28;20526;-75
2023/10/11 00:30:57;;;;;;;8.77;7.45;;;;;;;8.76;100.00;95696.09;4980181;28;19918;-75
2023/10/11 00:33:22;;;;;;;10.02;6.45;;;;;;;9.11;100.00;95699.75;4979204;28;20105;-75
2023/10/11 00:35:50;;;;;;;9.38;7.15;;;;;;;9.20;100.00;95688.53;4978046;28;20129;-74
2023/10/11 00:38:32;;;;;;;8.63;7.82;;;;;;;9.40;100.00;95695.25;4979372;28;20041;-76
2023/10/11 00:41:18;;;;;;;8.25;7.40;;;;;;;9.57;100.00;95689.28;4975203;28;20026;-75
2023/10/11 00:43:49;;;;;;;8.70;7.78;;;;;;;9.86;100.00;95682.13;4965083;28;20027;-75
2023/10/11 00:46:18;;;;;;;8.15;7.43;;;;;;;10.05;100.00;95694.09;4974940;28;20030;-75
2023/10/11 00:51:20;;;;;;;9.55;6.82;;;;;;;10.24;100.00;95698.34;4977267;28;20055;-75
2023/10/11 00:53:47;;;;;;;7.70;7.00;;;;;;;10.25;100.00;95705.94;4977261;28;20025;-75
2023/10/11 00:56:14;;;;;;;7.13;6.53;;;;;;;10.39;100.00;95712.34;4978116;28;20030;-76
2023/10/11 00:59:10;;;;;;;6.68;5.30;;;;;;;10.73;100.00;95715.81;4977741;28;20450;-76
2023/10/11 01:01:37;;;;;;;5.30;4.82;;;;;;;11.11;100.00;95712.78;4977660;28;20066;-76
2023/10/11 01:04:04;;;;;;;5.90;5.40;;;;;;;11.07;100.00;95700.31;4978825;28;20080;-76
2023/10/11 01:06:29;;;;;;;7.05;4.95;;;;;;;11.23;100.00;95692.59;4981702;28;20474;-75
2023/10/11 01:08:54;;;;;;;6.88;5.60;;;;;;;11.25;100.00;95692.44;4969004;28;20076;-76
2023/10/11 01:11:21;;;;;;;7.47;5.32;;;;;;;11.25;100.00;95692.44;4978071;28;20136;-75
2023/10/11 01:13:50;;;;;;;6.55;4.75;;;;;;;11.37;100.00;95692.00;4980201;28;20030;-76
2023/10/11 01:16:18;;;;;;;5.35;4.85;;;;;;;11.35;100.00;95693.13;4977715;28;20038;-76
2023/10/11 01:18:43;;;;;;;6.75;5.00;;;;;;;11.42;100.00;95694.13;4958300;28;20767;-76
2023/10/11 01:21:23;;;;;;;5.50;4.55;;;;;;;11.56;100.00;95689.13;4972976;28;20034;-76
2023/10/11 01:23:48;;;;;;;7.70;4.38;;;;;;;11.70;100.00;95676.50;4963560;28;20049;-76
2023/10/11 01:26:15;;;;;;;4.93;4.25;;;;;;;11.83;100.00;95656.13;4978464;28;20450;-77
2023/10/11 01:28:42;;;;;;;6.13;4.40;;;;;;;11.82;100.00;95644.94;4977997;28;20022;-76
2023/10/11 01:31:08;;;;;;;5.32;4.68;;;;;;;11.96;100.00;95623.53;4971063;28;20037;-76
2023/10/11 01:33:36;;;;;;;3.92;3.63;;;;;;;11.91;100.00;95625.78;4967902;28;20041;-76
2023/10/11 01:36:09;;;;;;;5.05;4.03;;;;;;;12.04;100.00;95620.16;4977668;28;20023;-76
2023/10/11 01:38:47;;;;;;;4.55;3.70;;;;;;;12.06;100.00;95606.03;4983136;28;20109;-76
2023/10/11 01:41:26;;;;;;;7.20;4.00;;;;;;;12.06;100.00;95600.81;4976830;28;20026;-76
2023/10/11 01:43:52;;;;;;;4.35;3.35;;;;;;;12.18;100.00;95595.28;4978701;28;20031;-77
2023/10/11 01:46:27;;;;;;;6.10;3.83;;;;;;;12.14;100.00;95592.19;4960590;28;20022;-76
2023/10/11 01:48:56;;;;;;;8.57;3.60;;;;;;;12.15;100.00;95592.03;4978948;28;20765;-77
2023/10/11 01:51:28;;;;;;;5.45;3.78;;;;;;;12.16;100.00;95592.88;4979407;28;20068;-77
2023/10/11 01:53:55;;;;;;;6.35;3.60;;;;;;;12.19;100.00;95591.72;4976503;28;20035;-76
2023/10/11 01:56:24;;;;;;;5.50;3.58;;;;;;;12.15;100.00;95591.22;4977817;28;20049;-76
2023/10/11 01:58:53;;;;;;;7.35;4.07;;;;;;;12.19;100.00;95597.72;4969195;28;20084;-76
2023/10/11 02:01:25;;;;;;;8.43;3.60;;;;;;;12.27;100.00;95582.13;4974698;28;20096;-76
2023/10/11 02:03:53;;;;;;;6.57;3.60;;;;;;;12.33;100.00;95565.09;4968804;28;20042;-76
2023/10/11 02:06:19;;;;;;;3.47;2.92;;;;;;;12.30;100.00;95570.56;4973488;28;20022;-77
2023/10/11 02:08:45;;;;;;;9.35;3.45;;;;;;;12.33;100.00;95575.47;4970811;28;20535;-76
2023/10/11 02:11:10;;;;;;;7.40;3.40;;;;;;;12.27;100.00;95568.31;4981035;28;20034;-75
2023/10/11 02:13:39;;;;;;;4.82;3.47;;;;;;;12.24;100.00;95566.06;4982946;28;20109;-75
2023/10/11 02:16:11;;;;;;;3.45;2.95;;;;;;;12.27;100.00;95566.53;4981159;28;20033;-75
2023/10/11 02:18:36;;;;;;;8.07;3.55;;;;;;;12.20;100.00;95562.19;4981411;28;20046;-75
2023/10/11 02:21:06;;;;;;;4.03;3.00;;;;;;;12.24;100.00;95576.44;4961083;28;20444;-76
2023/10/11 02:23:42;;;;;;;6.85;3.28;;;;;;;12.19;100.00;95563.16;4978622;28;20026;-76
2023/10/11 02:26:12;;;;;;;6.90;3.08;;;;;;;12.23;100.00;95573.06;4981525;28;20034;-75
2023/10/11 02:28:40;;;;;;;5.32;2.85;;;;;;;12.23;100.00;95574.84;4950205;28;20492;-76
2023/10/11 02:31:07;;;;;;;5.57;3.40;;;;;;;12.17;100.00;95573.69;4961674;28;20031;-76
2023/10/11 02:33:33;;;;;;;5.88;3.10;;;;;;;12.24;100.00;95573.84;4962215;28;20059;-76
2023/10/11 02:36:08;;;;;;;7.75;3.30;;;;;;;12.17;100.00;95572.91;4981252;28;20054;-75
2023/10/11 02:38:59;;;;;;;8.57;2.70;;;;;;;12.07;100.00;95573.09;4978540;28;20061;-76
2023/10/11 02:41:26;;;;;;;9.65;3.20;;;;;;;11.97;100.00;95580.22;4960648;28;20050;-76
2023/10/11 02:43:52;;;;;;;3.80;2.55;;;;;;;11.88;100.00;95578.63;4979905;28;20044;-76
2023/10/11 02:46:23;;;;;;;8.80;3.00;;;;;;;11.84;100.00;95578.13;4980839;28;20025;-76
2023/10/11 02:49:05;;;;;;;6.25;2.85;;;;;;;11.79;100.00;95598.53;4980894;28;20049;-76
2023/10/11 02:51:35;;;;;;;6.88;3.15;;;;;;;11.75;100.00;95597.25;4977797;28;20404;-75
2023/10/11 02:54:04;;;;;;;10.88;3.17;;;;;;;11.77;100.00;95594.50;4958209;28;20066;-76
2023/10/11 02:56:39;;;;;;;7.25;2.83;;;;;;;11.60;100.00;95584.06;4961891;28;20195;-76
2023/10/11 02:59:07;;;;;;;6.57;3.10;;;;;;;11.66;100.00;95600.78;4976207;28;20884;-75
2023/10/11 03:01:32;;;;;;;5.03;3.15;;;;;;;11.72;100.00;95604.56;4979140;28;20038;-75
2023/10/11 03:03:58;;;;;;;5.50;2.50;;;;;;;11.72;100.00;95597.56;4975455;28;20054;-76
2023/10/11 03:06:27;;;;;;;5.65;2.72;;;;;;;11.64;100.00;95600.13;4967882;28;20091;-76
2023/10/11 03:08:53;;;;;;;9.13;2.63;;;;;;;11.62;100.00;95607.28;4971146;28;20074;-76
2023/10/11 03:11:18;;;;;;;3.53;2.20;;;;;;;11.63;100.00;95603.69;4972502;28;20154;-76
2023/10/11 03:13:43;;;;;;;8.95;2.72;;;;;;;11.46;100.00;95596.88;4971867;28;20103;-76
2023/10/11 03:16:16;;;;;;;4.82;2.55;;;;;;;11.40;100.00;95605.28;4956774;28;20038;-76
2023/10/11 03:18:46;;;;;;;8.80;3.15;;;;;;;11.48;100.00;95618.28;4977295;28;20039;-75
2023/10/11 03:21:17;;;;;;;5.65;3.00;;;;;;;11.53;100.00;95613.41;4972781;28;20042;-76
2023/10/11 03:23:45;;;;;;;3.47;2.67;;;;;;;11.43;100.00;95618.75;4961261;28;20370;-75
2023/10/11 03:26:22;;;;;;;5.47;2.88;;;;;;;11.28;100.00;95617.75;4975557;28;20031;-76
2023/10/11 03:28:57;;;;;;;5.78;2.67;;;;;;;11.32;100.00;95631.19;4974626;28;20062;-75
2023/10/11 03:31:28;;;;;;;4.38;2.70;;;;;;;11.26;100.00;95624.06;4957002;28;20041;-75
2023/10/11 03:34:14;;;;;;;6.57;2.70;;;;;;;11.09;100.00;95629.19;4975726;28;20500;-75
2023/10/11 03:36:43;;;;;;;3.72;2.47;;;;;;;11.08;100.00;95637.94;4968370;28;20122;-75
2023/10/11 03:39:09;;;;;;;;;;;;;;;11.18;100.00;95640.38;4974229;28;20034;-76
2023/10/11 03:41:45;;;;;;;8.27;2.40;;;;;;;11.11;100.00;95640.22;4973482;28;19928;-76
2023/10/11 03:44:10;;;;;;;8.32;2.70;;;;;;;11.20;100.00;95642.84;4970754;28;20038;-76
2023/10/11 03:46:36;;;;;;;6.80;2.88;;;;;;;11.27;100.00;95643.84;4967252;28;20085;-77
2023/10/11 03:51:43;;;;;;;4.45;2.75;;;;;;;11.09;100.00;95636.97;4966019;28;20069;-77
2023/10/11 03:54:22;;;;;;;6.90;2.88;;;;;;;11.03;100.00;95641.97;4971087;28;20102;-77
2023/10/11 03:56:53;;;;;;;4.43;2.40;;;;;;;11.10;100.00;95637.78;4974480;28;20045;-77
2023/10/11 03:59:25;;;;;;;12.63;2.88;;;;;;;11.14;100.00;95643.47;4975942;28;20027;-76
2023/10/11 04:01:51;;;;;;;5.32;2.58;;;;;;;11.17;100.00;95641.38;4982204;28;20559;-77
2023/10/11 04:04:17;;;;;;;4.35;2.22;;;;;;;10.98;100.00;95646.81;4970312;28;20041;-77
2023/10/11 04:06:43;;;;;;;6.38;2.60;;;;;;;10.96;100.00;95652.16;4957279;28;20691;-76
2023/10/11 04:09:22;;;;;;;8.15;2.65;;;;;;;11.09;100.00;95652.53;4952186;28;20097;-76
2023/10/11 04:11:55;;;;;;;4.18;2.20;;;;;;;11.23;100.00;95645.94;4977198;28;20038;-76
2023/10/11 04:14:25;;;;;;;5.97;2.55;;;;;;;11.23;100.00;95645.13;4968654;28;20030;-75
2023/10/11 04:16:56;;;;;;;5.65;2.25;;;;;;;11.34;100.00;95655.19;4970805;28;20045;-75
2023/10/11 04:19:21;;;;;;;11.82;2.80;;;;;;;11.40;100.00;95657.16;4976510;28;20030;-75
2023/10/11 04:24:13;;;;;;;2.95;2.30;;;;;;;11.22;100.00;95662.44;4973385;28;20030;-77
2023/10/11 04:26:39;;;;;;;6.50;2.25;;;;;;;11.35;100.00;95662.81;4976203;28;20035;-76
2023/10/11 04:29:15;;;;;;;3.35;2.00;;;;;;;11.29;100.00;95666.06;4977540;28;20098;-76
2023/10/11 04:32:40;;;;;;;7.72;2.63;;;;;;;11.28;100.00;95659.22;4978496;28;20044;-76
2023/10/11 04:34:32;;;;;;;4.10;1.97;;;;;;;11.22;100.00;95666.81;4981078;28;20108;-76
2023/10/11 04:37:06;;;;;;;3.53;2.38;;;;;;;11.19;100.00;95667.13;4969176;28;20418;-75
2023/10/11 04:39:34;;;;;;;4.95;2.17;;;;;;;11.18;100.00;95668.09;4976792;28;20495;-76
2023/10/11 04:42:00;;;;;;;5.40;2.33;;;;;;;11.16;100.00;95670.03;4973680;28;20196;-77
2023/10/11 04:44:42;;;;;;;10.02;2.17;;;;;;;11.07;100.00;95662.25;4952777;28;20031;-77
2023/10/11 04:47:10;;;;;;;5.00;2.10;;;;;;;10.90;100.00;95673.50;4960290;28;20026;-77
2023/10/11 04:49:36;;;;;;;5.90;2.60;;;;;;;10.96;100.00;95678.06;4978157;28;20034;-75
2023/10/11 04:52:10;;;;;;;7.22;2.55;;;;;;;10.91;100.00;95669.94;4972053;28;20078;-76
2023/10/11 04:54:36;;;;;;;5.07;2.20;;;;;;;11.00;100.00;95674.19;4979264;28;20511;-75
2023/10/11 04:57:10;;;;;;;7.80;2.15;;;;;;;11.06;100.00;95673.56;4977565;28;20107;-76
2023/10/11 05:02:08;;;;;;;6.22;2.33;;;;;;;11.34;100.00;95673.34;4979616;28;20038;-76
2023/10/11 05:04:33;;;;;;;6.63;2.75;;;;;;;11.38;100.00;95677.25;4976323;28;20115;-76
2023/10/11 05:07:09;;;;;;;5.43;2.67;;;;;;;11.55;100.00;95678.94;4970527;28;20080;-77
2023/10/11 05:09:38;;;;;;;5.43;1.70;;;;;;;11.55;100.00;95684.13;4973914;28;20030;-76
2023/10/11 05:12:19;;;;;;;11.23;2.20;;;;;;;11.80;100.00;95683.22;4968893;28;20915;-76
2023/10/11 05:20:20;;;;;;;7.85;2.05;;;;;;;12.29;100.00;95678.88;4980257;28;20030;-75
2023/10/11 05:28:15;;;;;;;3.22;1.70;;;;;;;14.11;100.00;95658.66;4976665;28;20041;-76
2023/10/11 05:30:44;;;;;;;3.67;1.70;;;;;;;15.14;100.00;95644.78;4977035;28;20030;-78
2023/10/11 05:33:31;;;;;;;7.88;2.00;;;;;;;14.70;100.00;95652.59;4978143;28;20038;-77
2023/10/11 05:36:14;;;;;;;3.60;1.67;;;;;;;15.60;100.00;95655.03;4970309;28;20034;-77
2023/10/11 05:52:37;;;;;;;6.78;1.88;;;;;;;14.37;100.00;95658.31;4975818;28;20132;-75
2023/10/11 05:55:06;;;;;;;8.93;2.00;;;;;;;14.68;100.00;95653.78;4953851;28;20950;-75
2023/10/11 05:57:32;;;;;;;5.88;1.95;;;;;;;15.14;100.00;95651.81;4972286;28;20374;-75
2023/10/11 06:00:02;;;;;;;7.47;2.08;;;;;;;15.17;100.00;95664.50;4977728;28;20582;-76
2023/10/11 06:02:27;;;;;;;6.63;1.95;;;;;;;15.21;100.00;95668.38;4977566;28;20479;-75
2023/10/11 06:04:55;;;;;;;5.88;1.80;;;;;;;15.00;100.00;95669.09;4967799;28;20057;-76
2023/10/11 06:07:22;;;;;;;4.07;2.08;;;;;;;14.21;100.00;95673.06;4974471;28;20042;-77
2023/10/11 06:09:52;;;;;;;4.65;2.20;;;;;;;15.07;100.00;95672.59;4973294;28;20374;-76
2023/10/11 06:12:26;;;;;;;9.57;2.72;;;;;;;15.60;100.00;95675.91;4978038;28;20026;-76
2023/10/11 06:14:53;;;;;;;6.65;2.05;;;;;;;15.41;100.00;95673.84;4976486;28;20087;-76
2023/10/11 06:17:21;;;;;;;6.22;2.17;;;;;;;16.17;100.00;95668.06;4958270;28;20455;-75
2023/10/11 06:19:53;;;;;;;5.07;2.30;;;;;;;17.34;88.62;95649.75;4972598;28;20625;-76
2023/10/11 06:22:21;;;;;;;10.07;2.80;;;;;;;15.76;98.50;95673.06;4973581;28;20541;-77
2023/10/11 06:24:47;;;;;;;6.70;2.70;;;;;;;16.07;97.74;95672.78;4970346;28;20496;-76
2023/10/11 06:29:56;;;;;;;7.93;3.05;;;;;;;21.81;64.51;95677.00;4974559;28;20049;-75
2023/10/11 06:32:23;;;;;;;7.30;2.97;;;;;;;22.33;60.11;95678.94;4968574;28;20035;-75
2023/10/11 06:34:52;;;;;;;6.32;2.80;;;;;;;24.47;51.67;95681.50;4971120;28;20555;-77
2023/10/11 06:37:18;;;;;;;3.78;2.28;;;;;;;24.10;52.01;95690.84;4965727;28;20042;-76
2023/10/11 06:42:18;;;;;;;6.03;2.40;;;;;;;22.16;56.90;95690.34;4975481;28;20041;-76
2023/10/11 06:44:47;;;;;;;5.85;2.50;;;;;;;25.54;48.62;95692.72;4974118;28;20046;-76
2023/10/11 06:47:18;;;;;;;3.45;2.50;;;;;;;25.44;47.66;95687.25;4975368;28;20458;-77
2023/10/11 06:49:44;;;;;;;4.78;2.67;;;;;;;26.10;46.58;95680.91;4975877;28;20507;-77
2023/10/11 06:52:18;;;;;;;6.45;2.38;;;;;;;25.58;48.17;95683.25;4975229;28;20107;-77
2023/10/11 06:55:07;;;;;;;4.05;3.00;;;;;;;26.75;44.90;95689.81;4976696;28;20039;-78
2023/10/11 06:57:38;;;;;;;8.02;3.10;;;;;;;27.12;44.32;95685.34;4977319;28;20030;-77
2023/10/11 07:00:29;;;;;;;7.05;2.80;;;;;;;25.67;45.84;95694.22;4979026;28;20030;-77
2023/10/11 07:03:26;;;;;;;4.85;2.55;;;;;;;27.34;43.04;95690.53;4978599;28;20042;-77
2023/10/11 07:06:00;;;;;;;5.70;3.28;;;;;;;27.48;43.08;95691.72;4977711;28;20079;-78
2023/10/11 07:08:32;;;;;;;4.13;2.60;;;;;;;27.79;41.61;95692.66;4978882;28;20026;-77
2023/10/11 07:13:30;;;;;;;5.63;3.13;;;;;;;24.08;49.79;95691.06;4978878;28;20453;-76
2023/10/11 07:16:00;;;;;;;5.47;3.03;;;;;;;25.61;46.20;95680.09;4977886;28;20246;-77
2023/10/11 07:18:25;;;;;;;9.73;3.05;;;;;;;24.64;47.55;95687.63;4958567;28;20513;-77
2023/10/11 07:21:10;;;;;;;3.40;2.63;;;;;;;26.94;43.20;95683.09;4970251;28;20030;-77
2023/10/11 07:24:04;;;;;;;4.38;2.80;;;;;;;25.22;45.77;95678.47;4963051;28;20032;-77
2023/10/11 07:29:02;;;;;;;8.00;3.00;;;;;;;26.09;43.31;95671.34;4978291;28;20009;-77
2023/10/11 07:31:37;;;;;;;5.03;2.78;;;;;;;25.55;44.68;95669.66;4977009;28;20049;-77
2023/10/11 07:34:06;;;;;;;8.02;3.45;;;;;;;26.83;42.20;95671.56;4978711;28;20030;-78
2023/10/11 07:36:37;;;;;;;9.25;2.75;;;;;;;26.39;44.29;95659.47;4976641;28;20046;-77
2023/10/11 07:39:14;;;;;;;10.85;3.60;;;;;;;26.77;44.05;95658.44;4979528;28;20115;-77
2023/10/11 07:41:43;;;;;;;5.18;3.08;;;;;;;25.62;45.58;95651.69;4977475;28;20034;-77
2023/10/11 07:44:10;;;;;;;4.18;3.05;;;;;;;20.56;64.74;95666.88;4958115;28;20484;-77
2023/10/11 07:46:40;;;;;;;11.55;3.20;;;;;;;20.58;66.84;95659.59;4970301;28;20121;-79
2023/10/11 07:49:06;;;;;;;6.57;3.45;;;;;;;20.58;69.01;95663.03;4957801;28;20019;-77
2023/10/11 07:51:36;;;;;;;10.52;3.70;;;;;;;20.56;67.39;95648.47;4952577;28;20037;-77
2023/10/11 07:54:19;;;;;;;9.93;3.38;;;;;;;18.30;82.08;95661.72;4977714;28;20038;-77
2023/10/11 07:56:45;;;;;;;6.30;2.92;;;;;;;23.22;58.91;95662.03;4978045;28;20030;-77
2023/10/11 07:59:12;;;;;;;4.75;2.90;;;;;;;25.76;48.75;95655.56;4958071;28;20476;-78
2023/10/11 08:01:44;;;;;;;7.20;3.30;;;;;;;26.62;46.89;95661.75;4976405;28;20050;-77
2023/10/11 08:04:17;;;;;;;4.85;3.60;;;;;;;26.72;45.42;95657.34;4959479;28;20080;-79
2023/10/11 08:06:43;;;;;;;9.77;3.25;;;;;;;25.01;46.23;95672.03;4959838;28;20504;-76
2023/10/11 08:09:10;;;;;;;7.85;3.15;;;;;;;24.09;50.25;95678.66;4958318;28;20019;-76
2023/10/11 08:11:48;;;;;;;4.57;3.20;;;;;;;25.50;48.33;95678.34;4961308;28;20032;-78
2023/10/11 08:14:15;;;;;;;7.20;2.92;;;;;;;25.51;48.37;95674.66;4977835;28;20460;-80
2023/10/11 08:16:47;;;;;;;6.35;3.33;;;;;;;23.09;54.32;95678.16;4977327;28;20046;-78
2023/10/11 08:19:15;;;;;;;4.55;3.33;;;;;;;24.23;52.49;95679.22;4957775;28;20031;-77
2023/10/11 08:21:41;;;;;;;5.70;3.13;;;;;;;23.63;51.88;95676.97;4958041;28;20030;-78
2023/10/11 08:24:15;;;;;;;4.95;3.63;;;;;;;20.95;65.20;95677.09;4967638;28;20038;-77
2023/10/11 08:26:45;;;;;;;4.78;3.65;;;;;;;24.67;51.71;95675.72;4973736;28;20591;-78
2023/10/11 08:29:27;;;;;;;5.25;3.40;;;;;;;21.38;64.93;95680.53;4957833;28;20023;-79
2023/10/11 08:31:57;;;;;;;7.75;3.45;;;;;;;24.15;53.73;95675.09;4959323;28;20033;-79
2023/10/11 08:34:27;;;;;;;6.88;3.60;;;;;;;25.08;50.09;95680.63;4958189;28;20052;-83
2023/10/11 08:36:56;;;;;;;5.13;3.22;;;;;;;25.26;48.59;95676.94;4971468;28;20296;-77
2023/10/11 08:42:16;;;;;;;5.38;3.03;;;;;;;24.05;50.42;95677.50;4976535;28;20037;-78
2023/10/11 08:44:45;;;;;;;14.32;3.20;;;;;;;24.72;49.51;95681.13;4976724;28;20035;-78
2023/10/11 08:47:19;;;;;;;5.15;2.88;;;;;;;24.92;49.54;95678.81;4977175;28;20117;-78
2023/10/11 08:49:48;;;;;;;4.00;3.10;;;;;;;24.43;50.83;95677.72;4975534;28;20026;-77
2023/10/11 08:52:24;;;;;;;5.30;2.80;;;;;;;23.75;53.00;95677.75;4973867;28;20023;-78
2023/10/11 08:54:50;;;;;;;4.80;2.90;;;;;;;22.80;56.59;95664.00;4972735;28;20267;-77
2023/10/11 08:57:23;;;;;;;4.82;2.88;;;;;;;23.85;53.94;95663.91;4975869;28;20500;-77
2023/10/11 08:59:56;;;;;;;5.00;2.88;;;;;;;23.35;54.38;95667.09;4978110;28;20038;-78
2023/10/11 09:02:33;;;;;;;6.15;2.75;;;;;;;23.61;55.80;95655.22;4961932;28;20730;-78
2023/10/11 09:05:28;;;;;;;5.60;2.75;;;;;;;23.80;52.91;95654.00;4976652;28;20037;-78
2023/10/11 09:07:54;;;;;;;4.00;2.50;;;;;;;23.47;54.31;95653.91;4957355;28;20039;-77
2023/10/11 09:10:27;;;;;;;4.72;2.50;;;;;;;22.85;54.89;95660.69;4979670;28;20507;-77
2023/10/11 09:12:57;;;;;;;4.07;2.53;;;;;;;23.17;53.88;95663.78;4974413;28;20030;-77
2023/10/11 09:15:43;;;;;;;8.43;3.05;;;;;;;20.93;64.59;95660.72;4974042;28;20124;-77
2023/10/11 09:18:15;;;;;;;4.32;2.60;;;;;;;21.43;60.93;95662.22;4965226;28;20053;-78
2023/10/11 09:20:42;;;;;;;4.32;2.30;;;;;;;21.70;60.40;95661.94;4972932;28;20526;-77
2023/10/11 09:23:11;;;;;;;2.63;2.42;;;;;;;22.19;58.76;95664.31;4974363;28;20026;-77
2023/10/11 09:25:57;;;;;;;;;;;;;;;22.31;57.58;95665.19;4977121;28;20499;-78
2023/10/11 09:28:23;;;;;;;3.30;2.10;;;;;;;20.64;63.38;95664.81;4977420;28;19917;-77
2023/10/11 09:31:11;;;;;;;5.20;2.35;;;;;;;22.47;56.66;95669.00;4973658;28;20502;-78
2023/10/11 09:33:40;;;;;;;2.97;2.38;;;;;;;21.30;59.89;95670.28;4957659;28;20035;-77
2023/10/11 09:36:07;;;;;;;2.55;2.35;;;;;;;23.15;55.19;95661.34;4978288;28;20042;-76
2023/10/11 09:38:40;;;;;;;2.42;2.10;;;;;;;21.16;61.40;95660.91;4975410;28;20039;-78
2023/10/11 09:41:09;;;;;;;4.70;2.05;;;;;;;22.89;56.25;95646.00;4975750;28;20462;-78
2023/10/11 09:43:46;;;;;;;;;;;;;;;21.29;58.61;95652.03;4968366;28;20026;-77
2023/10/11 09:46:13;;;;;;;4.40;2.20;;;;;;;21.86;56.58;95645.47;4967735;28;19922;-78
2023/10/11 09:48:42;;;;;;;2.33;2.13;;;;;;;23.58;53.48;95651.22;4978042;28;20042;-78
2023/10/11 09:51:14;;;;;;;2.58;2.25;;;;;;;24.48;49.64;95645.22;4968375;28;20479;-78
2023/10/11 09:53:50;;;;;;;4.00;2.08;;;;;;;23.54;52.45;95644.78;4962176;28;20038;-79
2023/10/11 09:56:50;;;;;;;2.47;2.05;;;;;;;23.85;50.75;95642.75;4968745;28;20035;-78
2023/10/11 09:59:41;;;;;;;4.40;2.40;;;;;;;22.65;52.34;95641.69;4965771;28;20030;-78
2023/10/11 10:02:33;;;;;;;2.90;2.30;;;;;;;22.32;55.03;95642.19;4951034;28;20613;-77
2023/10/11 10:05:05;;;;;;;5.13;2.13;;;;;;;21.79;55.32;95634.22;4969449;28;20046;-78
2023/10/11 10:07:45;;;;;;;2.47;2.17;;;;;;;21.52;56.58;95639.00;4975385;28;20025;-77
2023/10/11 10:10:13;;;;;;;4.03;2.28;;;;;;;21.68;56.35;95630.50;4968498;28;20033;-79
2023/10/11 10:12:44;;;;;;;6.80;2.60;;;;;;;21.62;58.56;95633.19;4981181;28;20084;-78
2023/10/11 10:15:57;;;;;;;3.10;2.30;;;;;;;22.45;56.94;95628.78;4968228;28;20054;-77
2023/10/11 10:18:03;;;;;;;2.65;2.05;;;;;;;22.38;54.54;95631.53;4985662;28;20038;-77
2023/10/11 10:20:43;;;;;;;2.33;2.13;;;;;;;22.96;53.54;95628.16;4976657;28;20027;-78
2023/10/11 10:23:14;;;;;;;3.38;1.80;;;;;;;22.81;51.37;95611.97;4976175;28;20026;-77
2023/10/11 10:25:48;;;;;;;2.70;1.80;;;;;;;21.47;55.10;95617.78;4973736;28;20126;-77
2023/10/11 10:28:34;;;;;;;2.60;2.20;;;;;;;20.53;59.21;95620.75;4965909;28;20046;-77
2023/10/11 10:31:16;;;;;;;5.18;2.50;;;;;;;20.23;62.49;95612.66;4973211;28;20687;-77
2023/10/11 10:33:43;;;;;;;5.50;2.13;;;;;;;20.63;62.41;95602.66;4976749;28;20038;-77
2023/10/11 10:36:17;;;;;;;3.08;2.35;;;;;;;21.57;59.86;95604.88;4982482;28;20040;-78
2023/10/11 10:41:44;;;;;;;3.47;2.28;;;;;;;20.50;62.12;95600.94;4998585;28;20099;-77
2023/10/11 10:44:14;;;;;;;10.40;2.50;;;;;;;21.72;59.79;95602.66;4978861;28;20030;-77
2023/10/11 10:46:53;;;;;;;8.65;2.83;;;;;;;21.75;59.38;95596.13;4961818;28;20022;-78
2023/10/11 10:49:42;;;;;;;8.25;3.35;;;;;;;21.21;59.28;95584.63;4975459;28;20439;-77
2023/10/11 10:52:17;;;;;;;2.15;1.95;;;;;;;21.10;60.16;95572.19;4982054;28;20042;-78
2023/10/11 10:54:54;;;;;;;3.65;1.92;;;;;;;21.11;60.54;95581.72;4976431;28;20137;-77
2023/10/11 10:57:26;;;;;;;2.28;2.10;;;;;;;20.55;61.81;95586.31;4977616;28;20046;-78
2023/10/11 10:59:52;;;;;;;3.88;2.00;;;;;;;20.76;62.88;95578.81;4953352;28;20099;-78
2023/10/11 11:02:19;;;;;;;3.65;2.15;;;;;;;21.92;59.62;95581.31;4977956;28;20977;-78
2023/10/11 11:05:29;;;;;;;3.05;2.47;;;;;;;22.62;57.63;95573.47;4978808;28;20030;-77
2023/10/11 11:08:37;;;;;;;5.95;2.08;;;;;;;22.10;57.28;95567.22;5018368;28;20044;-77
2023/10/11 11:11:27;;;;;;;4.40;1.92;;;;;;;21.26;59.30;95582.13;5031473;28;20526;-77
2023/10/11 11:14:02;;;;;;;5.18;2.25;;;;;;;21.47;59.99;95572.97;5017965;28;20044;-78
2023/10/11 11:16:29;;;;;;;4.03;1.92;;;;;;;21.92;58.28;95571.56;5021147;28;20045;-78
2023/10/11 11:19:34;;;;;;;3.55;1.90;;;;;;;21.25;59.68;95570.00;5010355;28;20525;-78
2023/10/11 11:22:22;;;;;;;5.38;2.08;;;;;;;22.01;57.11;95572.03;4945473;28;20076;-78
2023/10/11 11:24:52;;;;;;;2.88;2.00;;;;;;;21.83;56.22;95569.44;4907176;28;20607;-78
2023/10/11 11:27:27;;;;;;;1.92;1.83;;;;;;;21.70;57.57;95567.78;4883013;28;20280;-78
2023/10/11 11:30:04;;;;;;;2.67;2.08;;;;;;;22.06;57.84;95567.66;4881892;28;20037;-78
2023/10/11 11:32:49;;;;;;;4.57;1.70;;;;;;;22.42;56.38;95566.69;4888889;29;20037;-80
2023/10/11 11:35:29;;;;;;;2.72;2.30;;;;;;;22.63;54.86;95564.53;4889823;29;20494;-82
2023/10/11 11:38:24;;;;;;;5.50;2.17;;;;;;;21.40;56.76;95561.69;4966083;28;20405;-79
2023/10/11 11:41:21;;;;;;;4.15;2.30;;;;;;;22.06;56.27;95535.19;4978361;28;20038;-81
2023/10/11 11:44:03;;;;;;;9.55;2.38;;;;;;;21.49;56.95;95555.09;4979035;28;20039;-80
2023/10/11 11:46:29;;;;;;;4.95;1.98;;;;;;;21.65;56.17;95561.56;4969655;28;20480;-81
2023/10/11 11:48:54;;;;;;;10.57;2.00;;;;;;;22.09;55.13;95553.22;4971819;28;20039;-82
2023/10/11 11:51:20;;;;;;;8.73;2.25;;;;;;;22.67;54.93;95563.06;4972391;28;20023;-79
2023/10/11 11:53:46;;;;;;;3.10;2.17;;;;;;;22.45;53.29;95553.03;4969182;28;20077;-84
2023/10/11 11:56:12;;;;;;;4.20;1.80;;;;;;;21.81;56.17;95551.19;4958527;28;20503;-78
2023/10/11 11:58:44;;;;;;;5.22;1.75;;;;;;;21.58;56.26;95547.69;4978410;28;20039;-78
2023/10/11 12:01:17;;;;;;;3.35;1.77;;;;;;;21.83;55.34;95551.75;4979526;28;20511;-78
2023/10/11 12:03:52;;;;;;;2.63;1.80;;;;;;;21.59;55.86;95546.63;4979282;28;20450;-79
2023/10/11 12:06:26;;;;;;;4.05;1.48;;;;;;;22.22;53.52;95539.03;4979836;28;20031;-78
2023/10/11 12:08:57;;;;;;;5.30;2.00;;;;;;;21.82;53.43;95552.78;4963017;28;20114;-77
2023/10/11 12:11:28;;;;;;;2.70;1.55;;;;;;;21.35;55.83;95543.91;4979528;28;20097;-77
2023/10/11 12:13:58;;;;;;;7.22;3.50;;;;;;;21.33;55.89;95545.97;4959094;28;20091;-77
2023/10/11 12:16:24;;;;;;;6.95;5.28;;;;;;;21.68;56.98;95532.09;4975006;28;20030;-78
2023/10/11 12:18:51;;;;;;;2.65;1.88;;;;;;;21.77;56.18;95530.78;4978936;28;20172;-78
2023/10/11 12:21:17;;;;;;;5.70;1.65;;;;;;;21.38;56.60;95535.53;4978419;28;20045;-80
2023/10/11 12:23:48;;;;;;;2.97;1.58;;;;;;;21.35;55.80;95527.31;4978547;28;20019;-79
2023/10/11 12:26:18;;;;;;;2.85;1.77;;;;;;;20.68;58.44;95536.19;4958449;28;20027;-78
2023/10/11 12:28:49;;;;;;;2.92;1.65;;;;;;;20.78;58.32;95539.91;4959186;28;20085;-79
2023/10/11 12:31:18;;;;;;;5.13;1.60;;;;;;;20.87;58.04;95537.78;4969002;28;20103;-80
2023/10/11 12:33:43;;;;;;;5.75;2.03;;;;;;;21.04;57.15;95529.06;4965177;28;20034;-77
2023/10/11 12:36:09;;;;;;;2.25;1.70;;;;;;;21.23;57.39;95539.59;4977222;28;20510;-78
2023/10/11 12:38:39;;;;;;;2.70;1.65;;;;;;;21.47;56.58;95526.31;4976912;28;20404;-78
2023/10/11 12:41:07;;;;;;;2.45;1.70;;;;;;;21.54;56.90;95527.00;4958711;28;20046;-79
2023/10/11 12:43:33;;;;;;;4.18;1.95;;;;;;;21.22;56.79;95530.09;4975678;28;20088;-77
2023/10/11 12:45:59;;;;;;;1.70;1.58;;;;;;;20.78;57.99;95526.72;4977488;28;20034;-79